Time;durP1;ratioP1;P1;durP2;ratioP2;P2;SDS_P1;SDS_P2;PMS_P1;PMS_P2;Temp;Humidity;BMP_temperature;BMP_pressure;BME280_temperature;BME280_humidity;BME280_pressure;Samples;Min_cycle;Max_cycle;Signal;HPM_P1;HPM_P2
2021/05/23 00:00:20;;;;;;;6.40;1.40;;;12.90;99.90;;;;;;4970895;28;20396;-55
2021/05/23 00:02:45;;;;;;;6.20;1.40;;;12.90;99.90;;;;;;4970106;28;20408;-55
2021/05/23 00:05:16;;;;;;;4.30;1.20;;;12.90;99.90;;;;;;4970706;28;20864;-55
2021/05/23 00:08:04;;;;;;;5.07;1.40;;;13.00;99.90;;;;;;4970419;28;20388;-60
2021/05/23 00:10:33;;;;;;;4.00;1.30;;;13.10;99.90;;;;;;4969818;28;20385;-55
2021/05/23 00:13:00;;;;;;;3.70;1.13;;;13.10;99.90;;;;;;4969813;28;20384;-56
2021/05/23 00:15:30;;;;;;;4.15;1.30;;;13.10;99.90;;;;;;4970676;28;20480;-55
2021/05/23 00:17:56;;;;;;;4.30;1.40;;;13.10;99.90;;;;;;4973224;28;20399;-55
2021/05/23 00:20:23;;;;;;;5.10;1.10;;;12.90;99.90;;;;;;4974001;28;20384;-55
2021/05/23 00:22:49;;;;;;;4.20;1.30;;;12.90;99.90;;;;;;4973098;28;20393;-55
2021/05/23 00:25:18;;;;;;;3.70;1.10;;;12.90;99.90;;;;;;4974135;28;20384;-55
2021/05/23 00:27:44;;;;;;;5.65;1.30;;;12.90;99.90;;;;;;4973085;28;20427;-59
2021/05/23 00:30:11;;;;;;;4.10;1.30;;;12.90;99.90;;;;;;4973864;28;20440;-55
2021/05/23 00:32:37;;;;;;;4.70;1.70;;;12.90;99.90;;;;;;4956643;28;20396;-55
2021/05/23 00:35:03;;;;;;;4.07;1.20;;;12.90;99.90;;;;;;4972971;28;20458;-55
2021/05/23 00:37:28;;;;;;;3.97;1.40;;;12.90;99.90;;;;;;4973750;28;20823;-55
2021/05/23 00:39:54;;;;;;;4.35;1.50;;;12.80;99.90;;;;;;4955655;28;20404;-56
2021/05/23 00:42:20;;;;;;;4.40;1.00;;;12.80;99.90;;;;;;4974043;28;20400;-54
2021/05/23 00:44:46;;;;;;;4.57;1.42;;;12.60;99.90;;;;;;4972992;28;20734;-56
2021/05/23 00:47:12;;;;;;;4.07;1.30;;;12.70;99.90;;;;;;4973700;28;20801;-54
2021/05/23 00:49:37;;;;;;;6.20;1.30;;;12.60;99.90;;;;;;4973652;28;20396;-55
2021/05/23 00:52:07;;;;;;;4.50;1.42;;;12.60;99.90;;;;;;4972533;28;20384;-55
2021/05/23 00:54:34;;;;;;;4.18;1.27;;;12.60;99.90;;;;;;4973355;28;20887;-54
2021/05/23 00:57:01;;;;;;;3.70;1.20;;;12.50;99.90;;;;;;4972383;28;20903;-54
2021/05/23 00:59:27;;;;;;;4.93;1.15;;;12.50;99.90;;;;;;4973556;28;20407;-54
2021/05/23 01:01:56;;;;;;;3.90;1.30;;;12.50;99.90;;;;;;4972634;28;20400;-56
2021/05/23 01:04:21;;;;;;;4.00;1.30;;;12.50;99.90;;;;;;4973381;28;20962;-54
2021/05/23 01:06:49;;;;;;;5.23;1.40;;;12.50;99.90;;;;;;4972474;28;20460;-55
2021/05/23 01:09:14;;;;;;;4.30;1.50;;;12.50;99.90;;;;;;4973074;28;20384;-55
2021/05/23 01:11:40;;;;;;;4.70;1.30;;;12.50;99.90;;;;;;4973198;28;20431;-55
2021/05/23 01:14:36;;;;;;;4.07;1.40;;;12.50;99.90;;;;;;4972009;28;20439;-55
2021/05/23 01:17:01;;;;;;;3.92;1.30;;;12.40;99.90;;;;;;4972364;28;20402;-55
2021/05/23 01:19:33;;;;;;;4.40;1.30;;;12.30;99.90;;;;;;4973324;28;20482;-55
2021/05/23 01:22:11;;;;;;;3.95;1.30;;;12.30;99.90;;;;;;4972308;28;20436;-55
2021/05/23 01:24:43;;;;;;;3.90;1.20;;;12.20;99.90;;;;;;4973051;28;20389;-55
2021/05/23 01:27:12;;;;;;;4.72;1.30;;;12.10;99.90;;;;;;4971638;28;20550;-55
2021/05/23 01:29:39;;;;;;;4.20;1.20;;;12.00;99.90;;;;;;4972026;28;20946;-54
2021/05/23 01:32:06;;;;;;;4.88;1.25;;;12.00;99.90;;;;;;4972089;28;20399;-54
2021/05/23 01:34:34;;;;;;;3.58;1.00;;;12.00;99.90;;;;;;4972597;28;20400;-54
2021/05/23 01:37:11;;;;;;;4.00;1.00;;;12.00;99.90;;;;;;4971846;28;20404;-55
2021/05/23 01:39:37;;;;;;;5.20;1.10;;;12.00;99.90;;;;;;4972592;28;20380;-55
2021/05/23 01:42:03;;;;;;;4.60;1.00;;;11.90;99.90;;;;;;4971916;28;21279;-55
2021/05/23 01:44:29;;;;;;;5.30;1.40;;;11.90;99.90;;;;;;4972525;28;20396;-55
2021/05/23 01:46:54;;;;;;;5.17;1.40;;;11.90;99.90;;;;;;4971491;28;20397;-57
2021/05/23 01:49:20;;;;;;;3.85;1.33;;;12.00;99.90;;;;;;4972607;28;20380;-55
2021/05/23 01:51:46;;;;;;;3.22;1.00;;;12.00;99.90;;;;;;4971919;28;20380;-60
2021/05/23 01:54:11;;;;;;;4.20;1.02;;;12.00;99.90;;;;;;4971744;28;20467;-55
2021/05/23 01:56:38;;;;;;;4.70;1.40;;;12.00;99.90;;;;;;4972607;28;21181;-55
2021/05/23 01:59:04;;;;;;;4.22;1.10;;;12.00;99.90;;;;;;4954016;28;20467;-55
2021/05/23 02:01:29;;;;;;;3.92;1.20;;;11.90;99.90;;;;;;4972134;28;20396;-55
2021/05/23 02:03:59;;;;;;;4.70;1.20;;;11.90;99.90;;;;;;4971426;28;20392;-55
2021/05/23 02:06:25;;;;;;;4.57;1.40;;;11.90;99.90;;;;;;4972076;28;20479;-55
2021/05/23 02:08:50;;;;;;;5.00;1.30;;;11.90;99.90;;;;;;4971177;28;20475;-55
2021/05/23 02:11:16;;;;;;;3.50;1.20;;;11.90;99.90;;;;;;4972023;28;20619;-54
2021/05/23 02:13:42;;;;;;;3.20;1.00;;;11.70;99.90;;;;;;4971541;28;20506;-55
2021/05/23 02:16:08;;;;;;;4.53;1.05;;;11.70;99.90;;;;;;4969858;28;20921;-54
2021/05/23 02:18:37;;;;;;;3.95;1.20;;;11.50;99.90;;;;;;4971734;28;20940;-52
2021/05/23 02:21:05;;;;;;;4.75;1.35;;;11.50;99.90;;;;;;4970783;28;20473;-52
2021/05/23 02:23:31;;;;;;;4.00;1.80;;;11.40;99.90;;;;;;4971671;28;20389;-52
2021/05/23 02:25:57;;;;;;;8.07;1.80;;;11.30;99.90;;;;;;4971022;28;20746;-53
2021/05/23 02:28:23;;;;;;;3.90;1.30;;;11.20;99.90;;;;;;4971558;28;20407;-52
2021/05/23 02:30:55;;;;;;;4.63;1.13;;;10.90;99.90;;;;;;4970369;28;20796;-52
2021/05/23 02:33:22;;;;;;;3.63;0.90;;;10.70;99.90;;;;;;4971433;28;21030;-51
2021/05/23 02:35:53;;;;;;;3.95;0.75;;;10.20;99.90;;;;;;4970783;28;20538;-53
2021/05/23 02:38:21;;;;;;;3.70;1.27;;;10.20;99.90;;;;;;4971396;28;20384;-51
2021/05/23 02:40:50;;;;;;;3.90;1.30;;;10.00;99.90;;;;;;4970930;28;20392;-59
2021/05/23 02:43:17;;;;;;;4.65;1.00;;;10.10;99.90;;;;;;4971423;28;20408;-52
2021/05/23 02:45:43;;;;;;;4.40;1.00;;;10.10;99.90;;;;;;4971549;28;20435;-52
2021/05/23 02:48:09;;;;;;;4.13;0.80;;;10.10;99.90;;;;;;4953352;28;20721;-52
2021/05/23 02:50:37;;;;;;;3.13;0.85;;;10.00;99.90;;;;;;4954249;28;20478;-52
2021/05/23 02:53:07;;;;;;;3.10;0.80;;;10.10;99.90;;;;;;4970080;28;20784;-51
2021/05/23 02:55:35;;;;;;;4.53;1.33;;;10.20;99.90;;;;;;4971299;28;20398;-51
2021/05/23 02:58:01;;;;;;;3.33;0.93;;;10.20;99.90;;;;;;4970324;28;20407;-51
2021/05/23 03:00:27;;;;;;;3.20;1.00;;;10.20;99.90;;;;;;4971432;28;20517;-51
2021/05/23 03:02:53;;;;;;;3.30;1.00;;;10.20;99.90;;;;;;4970465;28;20416;-51
2021/05/23 03:05:21;;;;;;;4.70;1.15;;;10.30;99.90;;;;;;4971087;28;20388;-51
2021/05/23 03:07:50;;;;;;;3.90;1.00;;;10.30;99.90;;;;;;4970630;28;20740;-58
2021/05/23 03:10:25;;;;;;;3.75;1.20;;;10.30;99.90;;;;;;4970929;28;20419;-51
2021/05/23 03:12:52;;;;;;;3.35;0.90;;;10.30;99.90;;;;;;4970208;28;20825;-51
2021/05/23 03:15:21;;;;;;;3.60;0.80;;;10.40;99.90;;;;;;4953832;28;20416;-51
2021/05/23 03:17:46;;;;;;;3.80;0.90;;;10.40;99.90;;;;;;4970839;28;20424;-59
2021/05/23 03:20:15;;;;;;;3.55;0.95;;;10.40;99.90;;;;;;4970664;28;20710;-51
2021/05/23 03:22:43;;;;;;;3.10;0.80;;;10.30;99.90;;;;;;4971125;28;20390;-51
2021/05/23 03:25:11;;;;;;;3.25;0.63;;;10.20;99.90;;;;;;4970183;28;20439;-51
2021/05/23 03:27:37;;;;;;;4.00;0.80;;;10.10;99.90;;;;;;4971016;28;20389;-52
2021/05/23 03:30:06;;;;;;;4.00;0.80;;;10.10;99.90;;;;;;4952801;28;20412;-52
2021/05/23 03:32:31;;;;;;;4.20;0.80;;;10.00;99.90;;;;;;4971019;28;20852;-52
2021/05/23 03:34:57;;;;;;;3.17;0.73;;;10.00;99.90;;;;;;4969789;28;20416;-53
2021/05/23 03:37:23;;;;;;;2.63;0.50;;;9.90;99.90;;;;;;4953891;28;20400;-52
2021/05/23 03:39:49;;;;;;;3.65;0.80;;;10.00;99.90;;;;;;4970412;28;20401;-55
2021/05/23 03:42:14;;;;;;;16.30;1.00;;;10.00;99.90;;;;;;4970796;28;20392;-52
2021/05/23 03:44:40;;;;;;;3.60;0.80;;;10.00;99.90;;;;;;4971037;28;20391;-51
2021/05/23 03:47:06;;;;;;;3.47;0.80;;;10.00;99.90;;;;;;4970078;28;20376;-52
2021/05/23 03:49:31;;;;;;;3.30;0.70;;;10.00;99.90;;;;;;4970869;28;20391;-52
2021/05/23 03:51:57;;;;;;;3.10;0.60;;;9.90;99.90;;;;;;4972298;28;20388;-53
2021/05/23 03:54:23;;;;;;;3.20;0.73;;;9.90;99.90;;;;;;4974430;28;20400;-52
2021/05/23 03:56:48;;;;;;;3.10;0.80;;;10.00;99.90;;;;;;4974099;28;20408;-59
2021/05/23 03:59:14;;;;;;;3.20;0.60;;;9.90;99.90;;;;;;4974590;28;20395;-52
2021/05/23 04:01:40;;;;;;;3.90;0.80;;;9.90;99.90;;;;;;4974093;28;20751;-53
2021/05/23 04:04:07;;;;;;;3.30;0.80;;;10.20;99.90;;;;;;4973463;28;20960;-52
2021/05/23 04:06:33;;;;;;;3.78;0.82;;;10.10;99.90;;;;;;4955031;28;20733;-53
2021/05/23 04:08:58;;;;;;;4.37;0.90;;;10.10;99.90;;;;;;4975544;28;20391;-52
2021/05/23 04:11:33;;;;;;;2.70;0.60;;;10.10;99.90;;;;;;4956750;28;20884;-53
2021/05/23 04:13:59;;;;;;;4.05;0.77;;;10.10;99.90;;;;;;4973374;28;20412;-52
2021/05/23 04:16:24;;;;;;;4.40;0.88;;;10.00;99.90;;;;;;4974150;28;20799;-52
2021/05/23 04:18:50;;;;;;;3.80;0.90;;;10.00;99.90;;;;;;4973345;28;20424;-59
2021/05/23 04:21:16;;;;;;;3.83;0.90;;;10.10;99.90;;;;;;4974057;28;20387;-52
2021/05/23 04:23:41;;;;;;;2.90;0.77;;;9.80;99.90;;;;;;4956556;28;20415;-52
2021/05/23 04:26:07;;;;;;;3.60;0.70;;;9.90;99.90;;;;;;4973210;28;20388;-52
2021/05/23 04:28:33;;;;;;;3.20;0.80;;;9.90;99.90;;;;;;4973670;28;20832;-52
2021/05/23 04:30:59;;;;;;;3.25;0.70;;;9.90;99.90;;;;;;4973132;28;20397;-53
2021/05/23 04:33:25;;;;;;;3.90;0.90;;;9.80;99.90;;;;;;4973919;28;20426;-52
2021/05/23 04:35:51;;;;;;;5.10;0.90;;;9.80;99.90;;;;;;4973033;28;20891;-59
2021/05/23 04:38:17;;;;;;;3.00;0.60;;;9.70;99.90;;;;;;4973703;28;20385;-52
2021/05/23 04:40:42;;;;;;;2.90;0.60;;;9.80;99.90;;;;;;4973527;28;20384;-52
2021/05/23 04:43:08;;;;;;;3.47;0.80;;;9.90;99.90;;;;;;4972949;28;20946;-52
2021/05/23 04:45:38;;;;;;;2.90;0.73;;;9.90;99.90;;;;;;4973599;28;20388;-52
2021/05/23 04:48:04;;;;;;;5.00;0.80;;;9.80;99.90;;;;;;4972554;28;20411;-52
2021/05/23 04:50:30;;;;;;;4.13;0.90;;;9.90;99.90;;;;;;4973999;28;20731;-52
2021/05/23 04:52:55;;;;;;;3.78;0.80;;;10.00;99.90;;;;;;4972536;28;20480;-54
2021/05/23 04:55:21;;;;;;;3.10;1.00;;;10.10;99.90;;;;;;4973274;28;20415;-52
2021/05/23 04:57:47;;;;;;;3.20;0.80;;;10.10;99.90;;;;;;4955772;28;20938;-58
2021/05/23 05:00:14;;;;;;;3.20;0.73;;;10.20;99.90;;;;;;4972812;28;20388;-53
2021/05/23 05:02:41;;;;;;;3.22;0.80;;;10.10;99.90;;;;;;4972860;28;20385;-51
2021/05/23 05:05:08;;;;;;;3.30;0.80;;;10.10;99.90;;;;;;4972670;28;20524;-51
2021/05/23 05:07:34;;;;;;;3.30;0.90;;;10.20;99.90;;;;;;4973234;28;20380;-51
2021/05/23 05:10:00;;;;;;;3.25;0.80;;;10.10;99.90;;;;;;4955051;28;20447;-51
2021/05/23 05:12:26;;;;;;;2.80;0.80;;;10.20;99.90;;;;;;4973366;28;20424;-51
2021/05/23 05:14:51;;;;;;;3.27;0.90;;;10.30;99.90;;;;;;4972053;28;20450;-52
2021/05/23 05:17:17;;;;;;;2.97;0.70;;;10.30;99.90;;;;;;4972941;28;20947;-52
2021/05/23 05:19:43;;;;;;;5.20;0.93;;;10.40;99.90;;;;;;4973243;28;20391;-52
2021/05/23 05:22:09;;;;;;;3.10;0.80;;;10.60;99.90;;;;;;4972378;28;20376;-52
2021/05/23 05:24:34;;;;;;;3.10;0.90;;;10.80;99.90;;;;;;4972716;28;20903;-52
2021/05/23 05:27:00;;;;;;;3.05;0.75;;;11.00;99.90;;;;;;4972316;28;20377;-52
2021/05/23 05:29:26;;;;;;;3.10;0.80;;;11.00;99.90;;;;;;4972455;28;20547;-53
2021/05/23 05:31:51;;;;;;;4.10;0.80;;;11.00;99.90;;;;;;4972148;28;20397;-55
2021/05/23 05:34:17;;;;;;;4.40;1.00;;;11.00;99.90;;;;;;4955610;28;20419;-53
2021/05/23 05:36:44;;;;;;;3.65;1.00;;;11.00;99.90;;;;;;4972512;28;20475;-53
2021/05/23 05:39:10;;;;;;;4.30;0.90;;;11.00;99.90;;;;;;4971539;28;20381;-53
2021/05/23 05:41:36;;;;;;;3.90;0.70;;;11.00;99.90;;;;;;4963552;28;20935;-53
2021/05/23 05:44:01;;;;;;;3.70;0.82;;;10.70;99.90;;;;;;4950796;29;20397;-51
2021/05/23 05:46:27;;;;;;;3.63;0.80;;;10.40;99.90;;;;;;4953303;29;20896;-51
2021/05/23 05:48:53;;;;;;;3.45;0.90;;;10.40;99.90;;;;;;4952223;29;20460;-52
2021/05/23 05:51:19;;;;;;;3.20;0.80;;;11.80;99.90;;;;;;4953974;28;20939;-53
2021/05/23 05:53:44;;;;;;;3.83;0.90;;;10.60;99.90;;;;;;4958198;28;20842;-55
2021/05/23 05:56:10;;;;;;;4.30;1.20;;;10.70;99.90;;;;;;4967667;28;20404;-52
2021/05/23 05:58:36;;;;;;;3.50;0.90;;;10.80;99.90;;;;;;4953184;28;20882;-52
2021/05/23 06:01:02;;;;;;;3.10;0.90;;;10.70;99.90;;;;;;4953969;28;20392;-55
2021/05/23 06:03:28;;;;;;;3.30;1.10;;;10.80;99.90;;;;;;4971765;28;20451;-53
2021/05/23 06:05:53;;;;;;;3.20;0.90;;;11.20;99.90;;;;;;4970520;28;20392;-54
2021/05/23 06:08:21;;;;;;;3.30;0.90;;;11.50;99.90;;;;;;4971188;28;20389;-53
2021/05/23 06:10:46;;;;;;;4.28;1.10;;;11.60;99.90;;;;;;4958259;28;20390;-56
2021/05/23 06:13:12;;;;;;;4.70;1.10;;;10.30;99.90;;;;;;4951214;28;20827;-53
2021/05/23 06:15:38;;;;;;;3.90;1.00;;;11.50;99.90;;;;;;4952093;29;20394;-53
2021/05/23 06:18:04;;;;;;;4.50;1.50;;;11.50;99.90;;;;;;4955915;28;20485;-55
2021/05/23 06:20:29;;;;;;;4.20;0.85;;;11.70;99.90;;;;;;4950961;29;20444;-55
2021/05/23 06:22:55;;;;;;;4.50;1.40;;;11.90;99.90;;;;;;4950094;29;20754;-54
2021/05/23 06:25:21;;;;;;;3.60;1.10;;;12.20;99.90;;;;;;4952405;29;20393;-54
2021/05/23 06:27:46;;;;;;;3.83;1.10;;;12.40;99.90;;;;;;4964664;28;20401;-54
2021/05/23 06:30:13;;;;;;;3.90;1.13;;;12.30;99.90;;;;;;4970341;28;20438;-58
2021/05/23 06:32:38;;;;;;;4.82;1.10;;;12.30;99.90;;;;;;4971355;28;20732;-54
2021/05/23 06:35:04;;;;;;;3.57;1.10;;;12.40;99.90;;;;;;4969795;28;20408;-54
2021/05/23 06:37:30;;;;;;;4.28;0.95;;;12.40;99.90;;;;;;4971334;28;20400;-54
2021/05/23 06:39:56;;;;;;;5.70;1.00;;;12.50;99.90;;;;;;4952713;28;20400;-59
2021/05/23 06:42:22;;;;;;;3.70;0.93;;;12.60;99.90;;;;;;4970904;28;20395;-61
2021/05/23 06:44:48;;;;;;;3.65;0.93;;;13.40;99.90;;;;;;4953809;28;20555;-70
2021/05/23 06:47:14;;;;;;;3.30;0.98;;;15.00;99.90;;;;;;4970157;28;20416;-62
2021/05/23 06:49:40;;;;;;;4.70;0.98;;;15.70;99.90;;;;;;4970875;28;20947;-61
2021/05/23 06:52:07;;;;;;;3.80;0.90;;;15.90;99.90;;;;;;4969919;28;20872;-59
2021/05/23 06:54:33;;;;;;;3.72;1.00;;;15.20;99.90;;;;;;4970472;28;20455;-58
2021/05/23 06:56:58;;;;;;;3.70;0.90;;;14.70;99.90;;;;;;4970157;28;20396;-59
2021/05/23 06:59:24;;;;;;;4.33;1.10;;;14.20;99.90;;;;;;4970836;28;20408;-59
2021/05/23 07:01:50;;;;;;;3.60;1.00;;;13.90;99.90;;;;;;4959935;28;20417;-73
2021/05/23 07:04:16;;;;;;;4.93;1.13;;;14.60;99.90;;;;;;4960491;28;20388;-59
2021/05/23 07:06:42;;;;;;;5.03;1.00;;;16.00;99.90;;;;;;4960864;28;20465;-59
2021/05/23 07:09:07;;;;;;;3.70;0.90;;;17.10;99.90;;;;;;4960393;28;20951;-60
2021/05/23 07:11:33;;;;;;;4.03;1.00;;;16.90;99.90;;;;;;4958827;28;20938;-59
2021/05/23 07:13:59;;;;;;;4.00;0.90;;;16.30;99.90;;;;;;4958669;28;20425;-59
2021/05/23 07:16:25;;;;;;;4.43;0.80;;;15.80;99.90;;;;;;4959955;28;20410;-59
2021/05/23 07:18:50;;;;;;;3.53;1.00;;;15.50;99.90;;;;;;4960983;28;20926;-72
2021/05/23 07:21:16;;;;;;;4.87;1.20;;;15.10;99.90;;;;;;4961425;28;20449;-59
2021/05/23 07:23:42;;;;;;;4.53;1.00;;;14.90;99.90;;;;;;4959260;28;20395;-59
2021/05/23 07:26:07;;;;;;;4.40;1.05;;;14.60;99.90;;;;;;4963108;28;20384;-59
2021/05/23 07:28:33;;;;;;;4.70;1.00;;;14.10;99.90;;;;;;4960891;28;20441;-58
2021/05/23 07:31:01;;;;;;;3.45;0.70;;;13.60;99.90;;;;;;4962948;28;20411;-62
2021/05/23 07:33:27;;;;;;;4.75;1.20;;;13.00;99.90;;;;;;4964585;28;20393;-59
2021/05/23 07:35:53;;;;;;;5.55;1.38;;;12.50;99.90;;;;;;4951026;28;20950;-74
2021/05/23 07:38:18;;;;;;;3.47;0.90;;;12.20;99.90;;;;;;4961944;28;20393;-56
2021/05/23 07:40:44;;;;;;;4.40;1.00;;;11.50;99.90;;;;;;4956435;28;20893;-54
2021/05/23 07:43:10;;;;;;;3.65;1.05;;;10.90;99.90;;;;;;4962827;28;20541;-54
2021/05/23 07:45:36;;;;;;;6.27;1.20;;;10.80;99.90;;;;;;4953949;28;20405;-53
2021/05/23 07:48:02;;;;;;;5.87;1.00;;;10.60;99.90;;;;;;4963551;28;20475;-56
2021/05/23 07:50:28;;;;;;;4.45;1.10;;;10.80;99.90;;;;;;4964040;28;20806;-52
2021/05/23 07:52:54;;;;;;;4.20;0.80;;;11.00;99.90;;;;;;4964738;28;20884;-58
2021/05/23 07:55:19;;;;;;;3.13;0.90;;;11.00;99.90;;;;;;4962869;28;20893;-53
2021/05/23 07:57:46;;;;;;;4.20;0.85;;;11.40;99.90;;;;;;4963733;28;20479;-53
2021/05/23 08:00:13;;;;;;;3.60;0.80;;;11.50;99.90;;;;;;4963102;28;20534;-54
2021/05/23 08:02:39;;;;;;;4.60;0.90;;;12.00;99.90;;;;;;4962100;28;20392;-55
2021/05/23 08:05:06;;;;;;;3.50;0.70;;;12.70;99.90;;;;;;4961287;28;20403;-54
2021/05/23 08:07:31;;;;;;;3.40;0.80;;;13.00;99.90;;;;;;4962754;28;20390;-53
2021/05/23 08:09:57;;;;;;;4.50;0.70;;;13.50;99.90;;;;;;4962636;28;20391;-55
2021/05/23 08:12:23;;;;;;;3.80;0.80;;;14.80;99.90;;;;;;4964354;28;20443;-56
2021/05/23 08:14:48;;;;;;;4.40;0.90;;;15.40;99.90;;;;;;4962006;28;20422;-53
2021/05/23 08:17:14;;;;;;;3.90;0.80;;;15.80;99.90;;;;;;4962899;28;20471;-54
2021/05/23 08:19:40;;;;;;;3.60;0.80;;;16.30;99.90;;;;;;4963803;28;20745;-52
2021/05/23 08:22:06;;;;;;;4.27;0.70;;;16.70;99.90;;;;;;4961672;28;20409;-54
2021/05/23 08:24:32;;;;;;;4.63;0.93;;;17.50;99.90;;;;;;4963996;28;20473;-53
2021/05/23 08:27:01;;;;;;;3.97;0.70;;;17.70;99.90;;;;;;4962481;28;20452;-54
2021/05/23 08:29:29;;;;;;;6.80;0.80;;;18.20;99.90;;;;;;4961907;28;20453;-54
2021/05/23 08:31:55;;;;;;;4.28;1.08;;;17.90;99.90;;;;;;4963734;28;20439;-60
2021/05/23 08:34:20;;;;;;;4.50;1.30;;;18.30;99.90;;;;;;4962904;28;20450;-54
2021/05/23 08:36:46;;;;;;;5.63;1.00;;;16.90;99.90;;;;;;4961655;28;20749;-55
2021/05/23 08:39:12;;;;;;;3.70;0.80;;;15.60;99.90;;;;;;4946260;28;20396;-54
2021/05/23 08:41:37;;;;;;;5.30;1.00;;;14.70;99.90;;;;;;4962580;28;20436;-54
2021/05/23 08:44:03;;;;;;;4.50;1.10;;;14.10;99.90;;;;;;4963438;28;20400;-56
2021/05/23 08:46:30;;;;;;;4.10;0.90;;;13.80;99.90;;;;;;4961283;28;20751;-53
2021/05/23 08:48:57;;;;;;;3.55;0.75;;;15.20;99.90;;;;;;4962546;28;20396;-58
2021/05/23 08:51:23;;;;;;;3.33;0.80;;;16.30;99.90;;;;;;4962709;28;20397;-52
2021/05/23 08:53:50;;;;;;;4.00;0.80;;;16.90;99.90;;;;;;4965974;28;20425;-53
2021/05/23 08:56:16;;;;;;;4.25;1.30;;;17.60;99.90;;;;;;4962157;28;20392;-53
2021/05/23 08:58:41;;;;;;;5.03;0.90;;;19.20;99.90;;;;;;4962999;28;20411;-54
2021/05/23 09:01:07;;;;;;;4.80;1.03;;;19.70;99.90;;;;;;4961010;28;20764;-56
2021/05/23 09:03:33;;;;;;;5.20;0.90;;;18.50;99.90;;;;;;4963595;28;20525;-54
2021/05/23 09:05:59;;;;;;;4.00;1.10;;;17.80;99.90;;;;;;4964055;28;20418;-54
2021/05/23 09:08:28;;;;;;;4.18;0.90;;;17.30;99.90;;;;;;4962970;28;20396;-54
2021/05/23 09:11:04;;;;;;;4.95;1.10;;;16.80;99.90;;;;;;4967616;28;20411;-59
2021/05/23 09:13:32;;;;;;;4.25;1.08;;;16.30;99.90;;;;;;4963402;28;20902;-53
2021/05/23 09:16:06;;;;;;;3.50;0.88;;;15.40;99.90;;;;;;4952328;29;20398;-53
2021/05/23 09:18:42;;;;;;;5.00;0.80;;;15.20;99.90;;;;;;4953611;29;20450;-53
2021/05/23 09:21:09;;;;;;;7.45;1.13;;;15.10;99.90;;;;;;4952320;29;20420;-54
2021/05/23 09:23:50;;;;;;;3.65;0.90;;;15.00;99.90;;;;;;4952995;29;20557;-54
2021/05/23 09:26:23;;;;;;;5.50;1.00;;;15.20;99.90;;;;;;4952111;29;20465;-54
2021/05/23 09:28:49;;;;;;;4.13;0.80;;;15.70;99.90;;;;;;4952943;29;20464;-53
2021/05/23 09:31:18;;;;;;;3.90;0.80;;;16.60;99.90;;;;;;4952282;29;20413;-53
2021/05/23 09:33:50;;;;;;;4.22;0.88;;;17.90;99.90;;;;;;4953742;28;20436;-53
2021/05/23 09:36:18;;;;;;;4.40;0.60;;;18.10;99.90;;;;;;4960974;28;20873;-55
2021/05/23 09:38:59;;;;;;;3.83;0.70;;;18.60;99.90;;;;;;4952646;29;20468;-56
2021/05/23 09:41:26;;;;;;;4.40;0.87;;;18.50;99.70;;;;;;4952792;29;20509;-55
2021/05/23 09:44:13;;;;;;;3.90;0.80;;;16.50;99.90;;;;;;4952766;29;20390;-55
2021/05/23 09:47:08;;;;;;;4.60;0.70;;;15.10;99.90;;;;;;4952916;29;20452;-52
2021/05/23 09:49:40;;;;;;;5.70;0.80;;;15.20;99.90;;;;;;4952137;28;20413;-55
2021/05/23 09:52:10;;;;;;;5.10;0.70;;;15.10;99.90;;;;;;4951671;29;20390;-56
2021/05/23 09:55:03;;;;;;;4.68;0.70;;;14.80;99.90;;;;;;4956578;28;20492;-52
2021/05/23 09:57:30;;;;;;;3.85;0.80;;;14.30;99.90;;;;;;4960278;28;20507;-54
2021/05/23 09:59:59;;;;;;;4.15;0.88;;;14.10;99.90;;;;;;4963871;28;20408;-61
2021/05/23 10:02:25;;;;;;;4.00;1.10;;;13.90;99.90;;;;;;4948783;28;20408;-53
2021/05/23 10:04:51;;;;;;;3.42;0.90;;;13.50;99.90;;;;;;4961355;28;20409;-53
2021/05/23 10:07:16;;;;;;;4.43;1.00;;;13.60;99.90;;;;;;4959815;28;20380;-58
2021/05/23 10:09:42;;;;;;;4.30;0.90;;;14.50;99.90;;;;;;4940345;28;20456;-56
2021/05/23 10:12:11;;;;;;;4.80;1.00;;;15.70;99.90;;;;;;4956047;28;20391;-57
2021/05/23 10:14:38;;;;;;;3.38;0.80;;;16.90;99.90;;;;;;4958042;28;20413;-57
2021/05/23 10:17:07;;;;;;;4.60;0.90;;;16.30;99.90;;;;;;4957259;28;20398;-57
2021/05/23 10:19:40;;;;;;;3.90;0.90;;;15.60;99.90;;;;;;5076419;28;20878;-59
2021/05/23 10:22:07;;;;;;;4.75;1.08;;;15.70;99.90;;;;;;5079804;28;20412;-59
2021/05/23 10:24:41;;;;;;;4.00;1.10;;;16.70;99.90;;;;;;5049862;28;20432;-62
2021/05/23 10:27:10;;;;;;;5.60;1.00;;;18.10;99.90;;;;;;5049583;28;20393;-62
2021/05/23 10:29:39;;;;;;;4.60;0.90;;;19.10;99.90;;;;;;5050374;28;20427;-61
2021/05/23 10:32:06;;;;;;;3.55;0.70;;;19.50;99.90;;;;;;5058450;28;20390;-61
2021/05/23 10:34:42;;;;;;;3.70;1.00;;;18.80;99.90;;;;;;5047477;28;20485;-59
2021/05/23 10:37:12;;;;;;;4.28;0.90;;;17.60;99.90;;;;;;5052807;28;20418;-57
2021/05/23 10:39:47;;;;;;;4.20;1.10;;;17.50;99.90;;;;;;5039788;28;20419;-58
2021/05/23 10:42:13;;;;;;;4.10;0.90;;;16.90;99.90;;;;;;5028262;28;20813;-57
2021/05/23 10:44:44;;;;;;;4.28;1.10;;;16.60;99.90;;;;;;5045306;28;20576;-60
2021/05/23 10:47:14;;;;;;;4.70;1.20;;;16.60;99.90;;;;;;5045303;28;20417;-59
2021/05/23 10:49:54;;;;;;;3.50;0.90;;;16.40;99.90;;;;;;5054454;28;20385;-65
2021/05/23 10:52:23;;;;;;;3.90;0.93;;;16.20;99.90;;;;;;5041103;28;20903;-57
2021/05/23 10:55:00;;;;;;;3.80;0.90;;;16.50;99.90;;;;;;5045542;28;20397;-59
2021/05/23 10:57:26;;;;;;;4.45;0.90;;;16.90;99.90;;;;;;5046664;28;20461;-61
2021/05/23 11:00:04;;;;;;;3.60;0.77;;;17.30;99.90;;;;;;5045825;28;20888;-65
2021/05/23 11:02:38;;;;;;;3.78;0.77;;;17.50;99.90;;;;;;5044227;28;20433;-61
2021/05/23 11:05:09;;;;;;;4.57;0.80;;;17.90;99.90;;;;;;5046230;28;20378;-64
2021/05/23 11:07:34;;;;;;;5.00;1.02;;;17.60;99.90;;;;;;5045647;28;20414;-64
2021/05/23 11:10:01;;;;;;;4.70;0.80;;;17.40;99.80;;;;;;5050707;28;20448;-61
2021/05/23 11:12:27;;;;;;;5.67;0.90;;;17.20;99.40;;;;;;5050689;28;20394;-58
2021/05/23 11:14:57;;;;;;;4.18;1.08;;;16.90;99.20;;;;;;5045354;28;20487;-58
2021/05/23 11:17:23;;;;;;;5.20;0.90;;;17.10;99.90;;;;;;5047714;28;20383;-63
2021/05/23 11:19:49;;;;;;;4.80;1.00;;;16.90;99.90;;;;;;5067827;28;20422;-59
2021/05/23 11:22:15;;;;;;;5.70;1.20;;;16.90;99.90;;;;;;5069384;28;20708;-57
2021/05/23 11:24:45;;;;;;;3.63;0.80;;;16.40;99.90;;;;;;5072299;28;20397;-58
2021/05/23 11:27:11;;;;;;;5.05;1.38;;;16.40;99.90;;;;;;5068766;28;20389;-57
2021/05/23 11:29:37;;;;;;;4.07;1.00;;;15.70;99.90;;;;;;5061975;28;20527;-58
2021/05/23 11:32:11;;;;;;;5.18;1.63;;;14.50;99.90;;;;;;5058900;28;20829;-64
2021/05/23 11:34:37;;;;;;;6.00;1.30;;;13.60;99.90;;;;;;5054633;28;20393;-57
2021/05/23 11:37:02;;;;;;;4.70;1.02;;;13.50;99.90;;;;;;5054330;28;20834;-58
2021/05/23 11:39:31;;;;;;;4.30;1.10;;;13.50;99.90;;;;;;5051956;28;20965;-61
2021/05/23 11:41:57;;;;;;;5.20;1.20;;;13.50;99.90;;;;;;5052412;28;20424;-59
2021/05/23 11:44:37;;;;;;;4.57;0.95;;;13.70;99.90;;;;;;5049368;28;20385;-58
2021/05/23 11:47:04;;;;;;;4.70;1.00;;;14.40;99.90;;;;;;5049741;28;20915;-55
2021/05/23 11:49:30;;;;;;;3.80;0.90;;;14.70;99.90;;;;;;5033047;28;20420;-53
2021/05/23 11:52:05;;;;;;;3.80;0.83;;;15.30;99.90;;;;;;5056686;28;20382;-53
2021/05/23 11:54:30;;;;;;;4.00;0.85;;;15.70;99.90;;;;;;5050976;28;20405;-57
2021/05/23 11:56:56;;;;;;;5.15;0.90;;;16.40;99.90;;;;;;5057165;28;20390;-53
2021/05/23 11:59:22;;;;;;;3.70;0.80;;;16.90;99.90;;;;;;5052408;28;20905;-56
2021/05/23 12:01:51;;;;;;;5.00;0.90;;;17.00;99.90;;;;;;5056336;28;20412;-54
2021/05/23 12:04:17;;;;;;;4.40;1.00;;;17.00;99.90;;;;;;5054617;28;20391;-57
2021/05/23 12:06:50;;;;;;;4.47;1.00;;;16.80;99.90;;;;;;5052910;28;20452;-53
2021/05/23 12:09:28;;;;;;;3.30;0.80;;;16.70;99.90;;;;;;5066786;28;20483;-53
2021/05/23 12:11:59;;;;;;;4.00;0.85;;;17.00;99.90;;;;;;5034954;28;20427;-54
2021/05/23 12:14:26;;;;;;;4.90;1.10;;;17.30;99.90;;;;;;5052947;28;20435;-54
2021/05/23 12:17:06;;;;;;;4.00;1.07;;;17.50;99.90;;;;;;5061766;28;20415;-54
2021/05/23 12:19:45;;;;;;;5.80;1.10;;;17.70;99.90;;;;;;5054445;28;20433;-54
2021/05/23 12:22:31;;;;;;;3.60;0.98;;;17.10;99.90;;;;;;5040682;28;20438;-54
2021/05/23 12:25:03;;;;;;;3.60;0.85;;;16.70;99.90;;;;;;5045215;28;20409;-54
2021/05/23 12:27:31;;;;;;;5.30;1.00;;;16.90;99.90;;;;;;5066729;28;20447;-54
2021/05/23 12:30:25;;;;;;;4.80;1.00;;;17.10;99.90;;;;;;5054342;28;20383;-54
2021/05/23 12:33:02;;;;;;;3.80;1.00;;;16.80;99.90;;;;;;5061274;28;20444;-53
2021/05/23 12:35:29;;;;;;;5.90;1.60;;;16.30;99.90;;;;;;5049726;28;20459;-52
2021/05/23 12:37:59;;;;;;;5.60;2.05;;;16.30;99.90;;;;;;5046286;28;20444;-54
2021/05/23 12:40:33;;;;;;;6.23;1.70;;;16.40;99.90;;;;;;5030295;28;20473;-53
2021/05/23 12:43:22;;;;;;;4.70;1.20;;;16.90;99.90;;;;;;5045969;28;20397;-55
2021/05/23 12:45:54;;;;;;;4.43;1.17;;;17.10;99.90;;;;;;5050785;28;20373;-54
2021/05/23 12:48:23;;;;;;;4.30;0.95;;;17.40;99.90;;;;;;5050947;28;20539;-54
2021/05/23 12:50:51;;;;;;;3.70;1.00;;;17.60;99.90;;;;;;5052616;28;20967;-54